This is the latest recevied weather packets stored in our database for station/object KA6UPU-1. If no packets are shown the sender has not sent any weather packets the latest 10 day(s).
| Time | Temp. | Humidity | Pressure | Rain* | Wind** | Luminosity | Snow |
|---|---|---|---|---|---|---|---|
| 1787948480 | 22.78° C | 59% | 1015.5 hPa | 0 mm | - | - | - |
| 1787948180 | 22.78° C | 58% | 1015.5 hPa | 0 mm | - | - | - |
| 1787947880 | 23.33° C | 57% | 1015.5 hPa | 0 mm | - | - | - |
| 1787947580 | 23.33° C | 57% | 1015.5 hPa | 0 mm | - | - | - |
| 1787947280 | 23.33° C | 56% | 1015.5 hPa | 0 mm | - | - | - |
| 1787946380 | 23.89° C | 53% | 1015.6 hPa | 0 mm | - | - | - |
| 1787945480 | 23.89° C | 50% | 1015.5 hPa | 0 mm | - | - | - |
| 1787945179 | 23.89° C | 50% | 1015.6 hPa | 0 mm | - | - | - |
| 1787944880 | 23.89° C | 50% | 1015.5 hPa | 0 mm | - | - | - |
| 1787944580 | 23.89° C | 50% | 1015.5 hPa | 0 mm | - | - | - |
| 1787943680 | 23.89° C | 49% | 1015.4 hPa | 0 mm | - | - | - |
| 1787943080 | 23.89° C | 47% | 1015.4 hPa | 0 mm | - | - | - |
| 1787942780 | 23.33° C | 47% | 1015.3 hPa | 0 mm | - | - | - |
| 1787942179 | 23.33° C | 49% | 1015.3 hPa | 0 mm | - | - | - |
| 1787941579 | 23.33° C | 49% | 1015.3 hPa | 0 mm | - | - | - |
| 1787941280 | 22.78° C | 51% | 1015.3 hPa | 0 mm | - | - | - |
| 1787940980 | 22.78° C | 52% | 1015.3 hPa | 0 mm | - | - | - |
| 1787940679 | 22.22° C | 52% | 1015.3 hPa | 0 mm | - | - | - |
| 1787939780 | 21.11° C | 56% | 1015.2 hPa | 0 mm | - | - | - |
| 1787939479 | 21.11° C | 57% | 1015.4 hPa | 0 mm | - | - | - |
| 1787939179 | 20.56° C | 58% | 1015.4 hPa | 0 mm | - | - | - |
| 1787938579 | 20.56° C | 60% | 1015.2 hPa | 0 mm | - | - | - |
| 1787938279 | 20.56° C | 61% | 1015.1 hPa | 0 mm | - | - | - |
| 1787937979 | 20.56° C | 63% | 1015 hPa | 0 mm | - | - | - |
| 1787937679 | 20° C | 63% | 1015 hPa | 0 mm | - | - | - |
* Rain latest hour (hover to see other rain measurements)
** Current wind speed in m/s (hover to see current wind gust speed)